createdAt,value
2017-02-01T00:00:39.408Z,0
2017-02-01T00:01:49.936Z,0
2017-02-01T00:02:59.805Z,0
2017-02-01T00:04:10.187Z,0
2017-02-01T00:05:20.149Z,0
2017-02-01T00:06:30.080Z,0
2017-02-01T00:07:40.569Z,0
2017-02-01T00:08:50.859Z,0
2017-02-01T00:10:00.741Z,0
2017-02-01T00:11:10.596Z,0
2017-02-01T00:12:20.868Z,0
2017-02-01T00:13:31.031Z,0
2017-02-01T00:14:41.306Z,0
2017-02-01T00:15:51.566Z,0
2017-02-01T00:17:01.836Z,0
2017-02-01T00:18:12.125Z,0
2017-02-01T00:19:22.667Z,0
2017-02-01T00:20:32.104Z,0
2017-02-01T00:21:42.498Z,0
2017-02-01T00:22:51.947Z,0
2017-02-01T00:24:01.794Z,0
2017-02-01T00:25:12.343Z,0
2017-02-01T00:26:22.612Z,0
2017-02-01T00:27:32.890Z,0
2017-02-01T00:28:43.176Z,0
2017-02-01T00:29:53.495Z,0
2017-02-01T00:31:04.269Z,0
2017-02-01T00:32:14.134Z,0
2017-02-01T00:33:24.025Z,0
2017-02-01T00:34:34.279Z,0
2017-02-01T00:35:44.580Z,0
2017-02-01T00:36:55.114Z,0
2017-02-01T00:38:05.359Z,0
2017-02-01T00:39:15.616Z,0
2017-02-01T00:40:25.508Z,0
2017-02-01T00:41:35.063Z,0
2017-02-01T00:42:45.624Z,0
2017-02-01T00:43:55.518Z,0
2017-02-01T00:45:05.829Z,0
2017-02-01T00:46:16.077Z,0
2017-02-01T00:47:26.359Z,0
2017-02-01T00:48:36.198Z,0
2017-02-01T00:49:46.574Z,0
2017-02-01T00:50:56.824Z,0
2017-02-01T00:52:06.810Z,0
2017-02-01T00:53:17.072Z,0
2017-02-01T00:54:27.219Z,0
2017-02-01T00:55:37.081Z,0
2017-02-01T00:56:47.027Z,0
2017-02-01T00:57:57.302Z,0
2017-02-01T00:59:07.138Z,0
2017-02-01T01:00:17.793Z,0
2017-02-01T01:01:27.644Z,0
2017-02-01T01:02:37.918Z,0
2017-02-01T01:03:48.163Z,0
2017-02-01T01:04:58.523Z,0
2017-02-01T01:06:08.226Z,0
2017-02-01T01:07:18.548Z,0
2017-02-01T01:08:28.810Z,0
2017-02-01T01:09:38.720Z,0
2017-02-01T01:10:48.688Z,0
2017-02-01T01:11:58.794Z,0
2017-02-01T01:13:08.276Z,0
2017-02-01T01:14:18.130Z,0
2017-02-01T01:15:28.006Z,0
2017-02-01T01:16:38.290Z,0
2017-02-01T01:17:48.960Z,0
2017-02-01T01:18:59.246Z,0
2017-02-01T01:20:09.505Z,0
2017-02-01T01:21:19.346Z,0
2017-02-01T01:22:29.236Z,0
2017-02-01T01:23:39.767Z,0
2017-02-01T01:24:49.663Z,0
2017-02-01T01:25:59.503Z,0
2017-02-01T01:27:09.761Z,0
2017-02-01T01:28:19.677Z,0
2017-02-01T01:29:29.764Z,0
2017-02-01T01:30:39.640Z,0
2017-02-01T01:31:49.881Z,0
2017-02-01T01:33:00.122Z,0
2017-02-01T01:34:09.977Z,0
2017-02-01T01:35:19.917Z,0
2017-02-01T01:36:30.218Z,0
2017-02-01T01:37:40.489Z,0
2017-02-01T01:38:50.375Z,0
2017-02-01T01:40:00.757Z,0
2017-02-01T01:41:10.910Z,0
2017-02-01T01:42:21.158Z,0
2017-02-01T01:43:31.008Z,0
2017-02-01T01:44:41.277Z,0
2017-02-01T01:45:51.168Z,0
2017-02-01T01:47:01.702Z,0
2017-02-01T01:48:11.669Z,0
2017-02-01T01:49:21.525Z,0
2017-02-01T01:50:31.876Z,0
2017-02-01T01:51:42.177Z,0
2017-02-01T01:52:52.338Z,0
2017-02-01T01:54:02.642Z,0
2017-02-01T01:55:12.968Z,0
2017-02-01T01:56:23.314Z,0
2017-02-01T01:57:33.202Z,0
2017-02-01T01:58:43.318Z,0
2017-02-01T01:59:52.803Z,0
2017-02-01T02:01:03.060Z,0
2017-02-01T02:02:12.894Z,0
2017-02-01T02:03:23.201Z,0
2017-02-01T02:04:33.743Z,0
2017-02-01T02:05:43.685Z,0
2017-02-01T02:06:53.959Z,0
2017-02-01T02:08:04.216Z,0
2017-02-01T02:09:14.618Z,0
2017-02-01T02:10:25.124Z,0
2017-02-01T02:11:35.461Z,0
2017-02-01T02:12:45.730Z,0
2017-02-01T02:13:55.568Z,0
2017-02-01T02:15:05.841Z,0
2017-02-01T02:16:15.958Z,0
2017-02-01T02:17:25.794Z,0
2017-02-01T02:18:35.741Z,0
2017-02-01T02:19:45.707Z,0
2017-02-01T02:20:55.983Z,0
2017-02-01T02:22:06.095Z,0
2017-02-01T02:23:15.957Z,0
2017-02-01T02:24:25.844Z,0
2017-02-01T02:25:36.247Z,0
2017-02-01T02:26:46.122Z,0
2017-02-01T02:27:56.631Z,0
2017-02-01T02:29:06.900Z,0
2017-02-01T02:30:17.142Z,0
2017-02-01T02:31:27.418Z,0
2017-02-01T02:32:37.309Z,0
2017-02-01T02:33:47.431Z,0
2017-02-01T02:34:57.284Z,0
2017-02-01T02:36:07.171Z,0
2017-02-01T02:37:17.435Z,0
2017-02-01T02:38:27.441Z,0
2017-02-01T02:39:38.016Z,0
2017-02-01T02:40:48.292Z,0
2017-02-01T02:41:58.531Z,0
2017-02-01T02:43:08.435Z,0
2017-02-01T02:44:18.720Z,0
2017-02-01T02:45:29.228Z,0
2017-02-01T02:46:39.129Z,0
2017-02-01T02:47:48.609Z,0
2017-02-01T02:48:58.867Z,0
2017-02-01T02:50:08.719Z,0
2017-02-01T02:51:19.247Z,0
2017-02-01T02:52:29.132Z,0
2017-02-01T02:53:39.563Z,0
2017-02-01T02:54:49.849Z,0
2017-02-01T02:56:00.123Z,0
2017-02-01T02:57:10.631Z,0
2017-02-01T02:58:20.953Z,0
2017-02-01T02:59:30.883Z,0
2017-02-01T03:00:41.142Z,0
2017-02-01T03:01:51.421Z,0
2017-02-01T03:03:02.022Z,0
2017-02-01T03:04:11.933Z,0
2017-02-01T03:05:22.274Z,0
2017-02-01T03:06:32.528Z,0
2017-02-01T03:07:42.829Z,0
2017-02-01T03:08:52.920Z,0
2017-02-01T03:10:03.203Z,0
2017-02-01T03:11:13.577Z,0
2017-02-01T03:12:23.815Z,0
2017-02-01T03:13:34.082Z,0
2017-02-01T03:14:43.891Z,0
2017-02-01T03:15:54.136Z,0
2017-02-01T03:17:04.079Z,0
2017-02-01T03:18:14.369Z,0
2017-02-01T03:19:24.622Z,0
2017-02-01T03:20:35.138Z,0
2017-02-01T03:21:45.403Z,0
2017-02-01T03:22:55.837Z,0
2017-02-01T03:24:06.142Z,0
2017-02-01T03:25:16.376Z,0
2017-02-01T03:26:26.900Z,0
2017-02-01T03:27:37.228Z,0
2017-02-01T03:28:47.537Z,0
2017-02-01T03:29:57.896Z,0
2017-02-01T03:31:07.396Z,0
2017-02-01T03:32:17.967Z,0
2017-02-01T03:33:27.135Z,0
2017-02-01T03:34:37.434Z,0
2017-02-01T03:35:47.708Z,0
2017-02-01T03:36:58.041Z,0
2017-02-01T03:38:08.530Z,0
2017-02-01T03:39:18.788Z,0
2017-02-01T03:40:29.105Z,0
2017-02-01T03:41:39.368Z,0
2017-02-01T03:42:49.617Z,0
2017-02-01T03:43:59.822Z,0
2017-02-01T03:45:10.106Z,0
2017-02-01T03:46:20.525Z,0
2017-02-01T03:47:30.787Z,0
2017-02-01T03:48:41.034Z,0
2017-02-01T03:49:51.622Z,0
2017-02-01T03:51:01.881Z,0
2017-02-01T03:52:12.116Z,0
2017-02-01T03:53:22.471Z,0
2017-02-01T03:54:32.300Z,0
2017-02-01T03:55:42.815Z,0
2017-02-01T03:56:52.677Z,0
2017-02-01T03:58:02.971Z,0
2017-02-01T03:59:13.273Z,0
2017-02-01T04:00:23.111Z,0
2017-02-01T04:01:33.258Z,0
2017-02-01T04:02:43.126Z,0
2017-02-01T04:03:53.444Z,0
2017-02-01T04:05:03.777Z,0
2017-02-01T04:06:14.095Z,0
2017-02-01T04:07:24.280Z,0
2017-02-01T04:08:34.561Z,0
2017-02-01T04:09:44.881Z,0
2017-02-01T04:10:55.163Z,0
2017-02-01T04:12:05.010Z,0
2017-02-01T04:13:15.545Z,0
2017-02-01T04:14:25.623Z,0
2017-02-01T04:15:35.895Z,0
2017-02-01T04:16:46.149Z,0
2017-02-01T04:17:56.397Z,0
2017-02-01T04:19:06.499Z,0
2017-02-01T04:20:16.743Z,0
2017-02-01T04:21:26.617Z,0
2017-02-01T04:22:37.099Z,0
2017-02-01T04:23:47.116Z,0
2017-02-01T04:24:57.611Z,0
2017-02-01T04:26:07.485Z,0
2017-02-01T04:27:17.757Z,0
2017-02-01T04:28:27.219Z,0
2017-02-01T04:29:37.097Z,0
2017-02-01T04:30:47.642Z,0
2017-02-01T04:31:57.899Z,0
2017-02-01T04:33:07.732Z,0
2017-02-01T04:34:17.591Z,0
2017-02-01T04:35:27.891Z,0
2017-02-01T04:36:38.482Z,0
2017-02-01T04:37:48.740Z,0
2017-02-01T04:38:59.048Z,0
2017-02-01T04:40:08.904Z,0
2017-02-01T04:41:19.212Z,0
2017-02-01T04:42:29.805Z,0
2017-02-01T04:43:38.877Z,0
2017-02-01T04:44:48.724Z,0
2017-02-01T04:45:58.179Z,0
2017-02-01T04:47:08.430Z,0
2017-02-01T04:48:19.055Z,0
2017-02-01T04:49:28.898Z,0
2017-02-01T04:50:39.343Z,0
2017-02-01T04:51:49.183Z,0
2017-02-01T04:52:59.026Z,0
2017-02-01T04:54:09.522Z,0
2017-02-01T04:55:19.392Z,0
2017-02-01T04:56:29.312Z,0
2017-02-01T04:57:39.591Z,0
2017-02-01T04:58:49.922Z,0
2017-02-01T05:00:00.073Z,0
2017-02-01T05:01:10.354Z,0
2017-02-01T05:02:20.253Z,0
2017-02-01T05:03:30.198Z,0
2017-02-01T05:04:40.531Z,0
2017-02-01T05:05:50.677Z,0
2017-02-01T05:07:00.965Z,0
2017-02-01T05:08:11.225Z,0
2017-02-01T05:09:21.470Z,0
2017-02-01T05:10:31.041Z,0
2017-02-01T05:11:41.515Z,0
2017-02-01T05:12:51.831Z,0
2017-02-01T05:14:01.749Z,0
2017-02-01T05:15:11.983Z,0
2017-02-01T05:16:21.843Z,0
2017-02-01T05:17:31.936Z,0
2017-02-01T05:18:42.189Z,0
2017-02-01T05:19:52.473Z,0
2017-02-01T05:21:02.725Z,0
2017-02-01T05:22:13.032Z,0
2017-02-01T05:23:23.166Z,0
2017-02-01T05:24:33.451Z,0
2017-02-01T05:25:43.686Z,0
2017-02-01T05:26:53.557Z,0
2017-02-01T05:28:03.810Z,0
2017-02-01T05:29:14.393Z,0
2017-02-01T05:30:24.220Z,0
2017-02-01T05:31:34.502Z,0
2017-02-01T05:32:44.369Z,0
2017-02-01T05:33:54.651Z,0
2017-02-01T05:35:05.213Z,0
2017-02-01T05:36:15.157Z,0
2017-02-01T05:37:25.156Z,0
2017-02-01T05:38:35.501Z,0
2017-02-01T05:39:45.788Z,0
2017-02-01T05:40:56.297Z,0
2017-02-01T05:42:06.238Z,0
2017-02-01T05:43:16.537Z,0
2017-02-01T05:44:26.437Z,0
2017-02-01T05:45:36.705Z,0
2017-02-01T05:46:47.357Z,0
2017-02-01T05:47:57.208Z,0
2017-02-01T05:49:07.055Z,0
2017-02-01T05:50:17.423Z,0
2017-02-01T05:51:27.340Z,0
2017-02-01T05:52:37.828Z,0
2017-02-01T05:53:47.691Z,0
2017-02-01T05:54:57.536Z,0
2017-02-01T05:56:07.821Z,0
2017-02-01T05:57:18.060Z,0
2017-02-01T05:58:28.170Z,0
2017-02-01T05:59:38.442Z,0
2017-02-01T06:00:48.691Z,0
2017-02-01T06:01:58.549Z,0
2017-02-01T06:03:08.796Z,0
2017-02-01T06:04:19.589Z,0
2017-02-01T06:05:29.888Z,0
2017-02-01T06:06:39.367Z,0
2017-02-01T06:07:49.780Z,0
2017-02-01T06:09:00.073Z,0
2017-02-01T06:10:10.203Z,0
2017-02-01T06:11:20.467Z,0
2017-02-01T06:12:30.764Z,0
2017-02-01T06:13:40.620Z,0
2017-02-01T06:14:50.885Z,0
2017-02-01T06:16:00.975Z,0
2017-02-01T06:17:11.220Z,0
2017-02-01T06:18:21.099Z,0
2017-02-01T06:19:30.738Z,0
2017-02-01T06:20:40.193Z,0
2017-02-01T06:21:50.695Z,0
2017-02-01T06:23:00.994Z,0
2017-02-01T06:24:11.332Z,4
2017-02-01T06:25:21.621Z,4
2017-02-01T06:26:30.675Z,0
2017-02-01T06:27:41.275Z,0
2017-02-01T06:28:51.142Z,4
2017-02-01T06:30:01.471Z,4
2017-02-01T06:31:11.781Z,4
2017-02-01T06:32:21.951Z,4
2017-02-01T06:33:32.531Z,4
2017-02-01T06:34:42.942Z,8
2017-02-01T06:35:52.412Z,8
2017-02-01T06:37:02.720Z,8
2017-02-01T06:38:13.081Z,8
2017-02-01T06:39:23.158Z,12
2017-02-01T06:40:32.995Z,12
2017-02-01T06:41:43.246Z,16
2017-02-01T06:42:53.185Z,20
2017-02-01T06:44:03.427Z,20
2017-02-01T06:45:13.544Z,24
2017-02-01T06:46:23.394Z,24
2017-02-01T06:47:33.296Z,28
2017-02-01T06:48:43.235Z,32
2017-02-01T06:49:53.482Z,36
2017-02-01T06:51:03.640Z,44
2017-02-01T06:52:14.001Z,48
2017-02-01T06:53:24.314Z,52
2017-02-01T06:54:34.154Z,60
2017-02-01T06:55:44.074Z,68
2017-02-01T06:56:54.220Z,76
2017-02-01T06:58:03.749Z,88
2017-02-01T06:59:14.040Z,92
2017-02-01T07:00:24.323Z,104
2017-02-01T07:01:34.673Z,120
2017-02-01T07:02:45.171Z,136
2017-02-01T07:03:55.499Z,148
2017-02-01T07:05:05.831Z,164
2017-02-01T07:06:16.168Z,176
2017-02-01T07:07:25.608Z,196
2017-02-01T07:08:35.787Z,212
2017-02-01T07:09:46.133Z,224
2017-02-01T07:10:56.382Z,248
2017-02-01T07:12:06.210Z,276
2017-02-01T07:13:16.519Z,296
2017-02-01T07:14:27.117Z,304
2017-02-01T07:15:36.996Z,316
2017-02-01T07:16:46.875Z,332
2017-02-01T07:17:57.172Z,360
2017-02-01T07:19:07.481Z,380
2017-02-01T07:20:18.016Z,428
2017-02-01T07:21:27.853Z,468
2017-02-01T07:22:37.704Z,468
2017-02-01T07:23:48.021Z,492
2017-02-01T07:24:57.864Z,560
2017-02-01T07:26:08.456Z,676
2017-02-01T07:27:18.749Z,764
2017-02-01T07:28:28.746Z,788
2017-02-01T07:29:38.691Z,812
2017-02-01T07:30:48.667Z,772
2017-02-01T07:31:58.778Z,696
2017-02-01T07:33:08.668Z,616
2017-02-01T07:34:18.547Z,568
2017-02-01T07:35:27.597Z,560
2017-02-01T07:36:37.053Z,588
2017-02-01T07:37:47.288Z,584
2017-02-01T07:38:57.238Z,560
2017-02-01T07:40:07.124Z,552
2017-02-01T07:41:17.379Z,588
2017-02-01T07:42:27.296Z,616
2017-02-01T07:43:37.863Z,628
2017-02-01T07:44:48.149Z,672
2017-02-01T07:45:58.395Z,708
2017-02-01T07:47:08.396Z,748
2017-02-01T07:48:18.310Z,712
2017-02-01T07:49:28.834Z,688
2017-02-01T07:50:38.295Z,704
2017-02-01T07:51:48.580Z,660
2017-02-01T07:52:58.813Z,596
2017-02-01T07:54:09.196Z,540
2017-02-01T07:55:19.291Z,520
2017-02-01T07:56:29.575Z,632
2017-02-01T07:57:39.455Z,700
2017-02-01T07:58:48.892Z,736
2017-02-01T07:59:58.809Z,784
2017-02-01T08:01:09.487Z,764
2017-02-01T08:02:19.809Z,756
2017-02-01T08:03:30.089Z,768
2017-02-01T08:04:40.403Z,864
2017-02-01T08:05:50.660Z,896
2017-02-01T08:07:00.492Z,864
2017-02-01T08:08:10.393Z,888
2017-02-01T08:09:20.641Z,952
2017-02-01T08:10:30.928Z,1092
2017-02-01T08:11:41.313Z,1104
2017-02-01T08:12:51.463Z,1064
2017-02-01T08:14:01.777Z,1000
2017-02-01T08:15:11.956Z,1068
2017-02-01T08:16:21.850Z,1104
2017-02-01T08:17:32.131Z,1116
2017-02-01T08:18:42.320Z,1108
2017-02-01T08:19:52.264Z,1068
2017-02-01T08:21:02.664Z,1172
2017-02-01T08:22:12.128Z,1240
2017-02-01T08:23:22.468Z,1232
2017-02-01T08:24:32.573Z,1212
2017-02-01T08:25:42.045Z,1224
2017-02-01T08:26:51.928Z,1180
2017-02-01T08:28:02.256Z,1236
2017-02-01T08:29:12.513Z,1416
2017-02-01T08:30:22.745Z,1360
2017-02-01T08:31:32.622Z,1264
2017-02-01T08:32:42.883Z,1508
2017-02-01T08:33:53.207Z,1520
2017-02-01T08:35:03.491Z,1620
2017-02-01T08:36:14.146Z,1700
2017-02-01T08:37:24.401Z,1764
2017-02-01T08:38:34.749Z,1488
2017-02-01T08:39:44.593Z,1444
2017-02-01T08:40:54.900Z,1520
2017-02-01T08:42:05.449Z,1528
2017-02-01T08:43:15.319Z,1516
2017-02-01T08:44:25.568Z,1352
2017-02-01T08:45:35.997Z,1340
2017-02-01T08:46:46.295Z,1636
2017-02-01T08:47:56.486Z,1720
2017-02-01T08:49:06.781Z,1432
2017-02-01T08:50:16.639Z,1200
2017-02-01T08:51:26.902Z,1268
2017-02-01T08:52:37.171Z,1380
2017-02-01T08:53:47.356Z,1436
2017-02-01T08:54:56.812Z,1408
2017-02-01T08:56:07.084Z,1440
2017-02-01T08:57:17.356Z,2044
2017-02-01T08:58:27.211Z,2136
2017-02-01T08:59:37.731Z,2316
2017-02-01T09:00:48.061Z,2184
2017-02-01T09:01:58.328Z,2196
2017-02-01T09:03:08.644Z,2104
2017-02-01T09:04:18.893Z,2188
2017-02-01T09:05:29.456Z,2312
2017-02-01T09:06:39.857Z,2344
2017-02-01T09:07:50.308Z,2228
2017-02-01T09:09:00.567Z,2000
2017-02-01T09:10:10.029Z,2264
2017-02-01T09:11:19.385Z,2668
2017-02-01T09:12:29.667Z,2384
2017-02-01T09:13:39.691Z,1976
2017-02-01T09:14:50.014Z,1820
2017-02-01T09:15:59.957Z,2144
2017-02-01T09:17:09.687Z,2132
2017-02-01T09:18:19.925Z,2232
2017-02-01T09:19:30.189Z,1972
2017-02-01T09:20:40.483Z,2012
2017-02-01T09:21:50.381Z,1888
2017-02-01T09:23:00.955Z,1760
2017-02-01T09:24:11.242Z,1724
2017-02-01T09:25:21.084Z,1696
2017-02-01T09:26:31.344Z,1612
2017-02-01T09:27:41.600Z,1612
2017-02-01T09:28:52.099Z,2012
2017-02-01T09:30:02.396Z,2104
2017-02-01T09:31:12.653Z,2100
2017-02-01T09:32:22.532Z,2296
2017-02-01T09:33:32.795Z,2748
2017-02-01T09:34:43.292Z,3248
2017-02-01T09:35:53.573Z,3852
2017-02-01T09:37:04.107Z,4292
2017-02-01T09:38:14.398Z,3928
2017-02-01T09:39:24.314Z,3728
2017-02-01T09:40:34.840Z,3552
2017-02-01T09:41:45.111Z,3716
2017-02-01T09:42:55.513Z,3836
2017-02-01T09:44:05.780Z,3768
2017-02-01T09:45:16.100Z,3528
2017-02-01T09:46:26.258Z,3620
2017-02-01T09:47:36.504Z,3856
2017-02-01T09:48:46.351Z,3972
2017-02-01T09:49:56.635Z,4264
2017-02-01T09:51:06.599Z,4564
2017-02-01T09:52:17.278Z,5012
2017-02-01T09:53:27.634Z,5360
2017-02-01T09:54:37.515Z,5540
2017-02-01T09:55:47.797Z,5996
2017-02-01T09:56:57.687Z,5548
2017-02-01T09:58:08.248Z,5092
2017-02-01T09:59:18.104Z,5120
2017-02-01T10:00:27.960Z,5120
2017-02-01T10:01:37.894Z,4908
2017-02-01T10:02:47.753Z,4612
2017-02-01T10:03:58.281Z,4700
2017-02-01T10:05:08.576Z,5044
2017-02-01T10:06:18.862Z,5052
2017-02-01T10:07:29.102Z,5064
2017-02-01T10:08:38.990Z,5140
2017-02-01T10:09:48.921Z,5508
2017-02-01T10:10:59.249Z,5784
2017-02-01T10:12:09.099Z,6084
2017-02-01T10:13:19.434Z,6620
2017-02-01T10:14:29.727Z,6868
2017-02-01T10:15:40.333Z,7132
2017-02-01T10:16:50.275Z,7396
2017-02-01T10:18:00.134Z,7244
2017-02-01T10:19:10.161Z,7016
2017-02-01T10:20:20.516Z,6564
2017-02-01T10:21:31.050Z,6384
2017-02-01T10:22:41.354Z,6712
2017-02-01T10:23:51.641Z,6820
2017-02-01T10:25:02.066Z,7008
2017-02-01T10:26:11.927Z,6624
2017-02-01T10:27:22.273Z,6044
2017-02-01T10:28:32.628Z,5668
2017-02-01T10:29:42.501Z,5504
2017-02-01T10:30:52.824Z,5440
2017-02-01T10:32:03.085Z,6428
2017-02-01T10:33:12.799Z,6608
2017-02-01T10:34:22.681Z,6444
2017-02-01T10:35:33.015Z,5824
2017-02-01T10:36:42.892Z,5180
2017-02-01T10:37:52.361Z,5700
2017-02-01T10:39:03.038Z,5956
2017-02-01T10:40:13.339Z,5608
2017-02-01T10:41:23.581Z,5236
2017-02-01T10:42:33.884Z,5388
2017-02-01T10:43:44.150Z,6216
2017-02-01T10:44:54.686Z,6152
2017-02-01T10:46:05.055Z,5692
2017-02-01T10:47:14.949Z,5132
2017-02-01T10:48:25.212Z,5244
2017-02-01T10:49:34.707Z,5012
2017-02-01T10:50:44.843Z,5204
2017-02-01T10:51:55.173Z,5352
2017-02-01T10:53:05.444Z,4608
2017-02-01T10:54:15.800Z,4508
2017-02-01T10:55:26.109Z,4844
2017-02-01T10:56:36.227Z,4480
2017-02-01T10:57:46.088Z,4508
2017-02-01T10:58:56.440Z,4876
2017-02-01T11:00:06.422Z,5096
2017-02-01T11:01:16.289Z,5820
2017-02-01T11:02:26.173Z,6428
2017-02-01T11:03:36.035Z,5644
2017-02-01T11:04:46.349Z,6560
2017-02-01T11:05:56.603Z,6348
2017-02-01T11:07:06.939Z,5580
2017-02-01T11:08:17.513Z,4908
2017-02-01T11:09:27.835Z,5028
2017-02-01T11:10:37.807Z,5156
2017-02-01T11:11:48.101Z,4868
2017-02-01T11:12:57.961Z,4948
2017-02-01T11:14:07.713Z,4756
2017-02-01T11:15:17.991Z,4768
2017-02-01T11:16:27.873Z,4752
2017-02-01T11:17:38.170Z,4852
2017-02-01T11:18:48.486Z,5240
2017-02-01T11:19:58.999Z,5244
2017-02-01T11:21:08.865Z,5200
2017-02-01T11:22:18.720Z,5036
2017-02-01T11:23:28.990Z,4644
2017-02-01T11:24:39.306Z,4756
2017-02-01T11:25:49.450Z,4900
2017-02-01T11:26:59.445Z,4848
2017-02-01T11:28:09.775Z,4544
2017-02-01T11:29:20.230Z,4472
2017-02-01T11:30:30.582Z,4232
2017-02-01T11:31:41.105Z,4064
2017-02-01T11:32:51.447Z,3880
2017-02-01T11:34:01.736Z,3908
2017-02-01T11:35:12.027Z,4172
2017-02-01T11:36:22.313Z,4096
2017-02-01T11:37:32.850Z,4136
2017-02-01T11:38:42.711Z,4268
2017-02-01T11:39:52.565Z,4560
2017-02-01T11:41:02.123Z,4408
2017-02-01T11:42:12.162Z,4144
2017-02-01T11:43:22.270Z,4164
2017-02-01T11:44:31.768Z,4116
2017-02-01T11:45:42.060Z,4124
2017-02-01T11:46:52.386Z,4200
2017-02-01T11:48:02.657Z,4216
2017-02-01T11:49:13.187Z,4340
2017-02-01T11:50:23.055Z,4372
2017-02-01T11:51:33.325Z,4568
2017-02-01T11:52:43.670Z,4368
2017-02-01T11:53:53.950Z,4332
2017-02-01T11:55:04.532Z,4484
2017-02-01T11:56:14.406Z,4688
2017-02-01T11:57:24.311Z,4768
2017-02-01T11:58:34.605Z,4672
2017-02-01T11:59:44.929Z,4476
2017-02-01T12:00:55.142Z,4004
2017-02-01T12:02:04.990Z,4064
2017-02-01T12:03:14.872Z,4392
2017-02-01T12:04:25.201Z,5064
2017-02-01T12:05:35.490Z,4632
2017-02-01T12:06:46.066Z,4344
2017-02-01T12:07:55.552Z,5016
2017-02-01T12:09:05.852Z,5880
2017-02-01T12:10:16.107Z,5660
2017-02-01T12:11:26.201Z,4872
2017-02-01T12:12:36.752Z,4856
2017-02-01T12:13:46.620Z,5164
2017-02-01T12:14:56.917Z,4864
2017-02-01T12:16:07.236Z,5004
2017-02-01T12:17:17.150Z,5032
2017-02-01T12:18:27.805Z,5144
2017-02-01T12:19:37.707Z,5352
2017-02-01T12:20:47.985Z,5116
2017-02-01T12:21:58.300Z,5212
2017-02-01T12:23:08.177Z,5364
2017-02-01T12:24:18.716Z,5272
2017-02-01T12:25:28.993Z,5180
2017-02-01T12:26:39.294Z,5232
2017-02-01T12:27:49.592Z,5184
2017-02-01T12:28:59.871Z,5292
2017-02-01T12:30:09.998Z,5372
2017-02-01T12:31:19.594Z,5256
2017-02-01T12:32:29.856Z,4972
2017-02-01T12:33:39.716Z,4796
2017-02-01T12:34:49.678Z,4780
2017-02-01T12:36:00.240Z,4644
2017-02-01T12:37:10.172Z,4656
2017-02-01T12:38:20.419Z,4300
2017-02-01T12:39:30.730Z,4532
2017-02-01T12:40:41.027Z,4316
2017-02-01T12:41:51.641Z,4780
2017-02-01T12:43:01.979Z,4768
2017-02-01T12:44:11.893Z,4064
2017-02-01T12:45:22.213Z,4156
2017-02-01T12:46:32.483Z,4280
2017-02-01T12:47:42.676Z,4436
2017-02-01T12:48:52.513Z,4264
2017-02-01T12:50:02.882Z,4180
2017-02-01T12:51:12.835Z,3856
2017-02-01T12:52:23.175Z,4216
2017-02-01T12:53:33.685Z,3956
2017-02-01T12:54:43.978Z,3400
2017-02-01T12:55:54.540Z,3640
2017-02-01T12:57:04.835Z,3852
2017-02-01T12:58:15.106Z,3880
2017-02-01T12:59:25.271Z,3876
2017-02-01T13:00:35.560Z,3928
2017-02-01T13:01:45.900Z,4068
2017-02-01T13:02:56.181Z,3900
2017-02-01T13:04:05.668Z,3996
2017-02-01T13:05:15.862Z,4180
2017-02-01T13:06:25.709Z,4200
2017-02-01T13:07:35.550Z,4148
2017-02-01T13:08:45.396Z,3940
2017-02-01T13:09:55.313Z,3756
2017-02-01T13:11:05.868Z,3680
2017-02-01T13:12:15.843Z,3652
2017-02-01T13:13:26.125Z,3524
2017-02-01T13:14:36.419Z,3440
2017-02-01T13:15:46.268Z,3272
2017-02-01T13:16:56.780Z,3452
2017-02-01T13:18:06.900Z,3736
2017-02-01T13:19:17.191Z,3596
2017-02-01T13:20:27.444Z,3356
2017-02-01T13:21:37.699Z,3244
2017-02-01T13:22:48.287Z,3236
2017-02-01T13:23:58.618Z,3264
2017-02-01T13:25:08.948Z,3252
2017-02-01T13:26:18.828Z,3380
2017-02-01T13:27:28.716Z,3200
2017-02-01T13:28:38.878Z,2928
2017-02-01T13:29:49.186Z,2948
2017-02-01T13:30:59.466Z,2940
2017-02-01T13:32:09.377Z,2604
2017-02-01T13:33:19.792Z,2528
2017-02-01T13:34:29.563Z,2472
2017-02-01T13:35:39.610Z,2304
2017-02-01T13:36:49.909Z,2396
2017-02-01T13:37:59.836Z,2504
2017-02-01T13:39:09.700Z,2456
2017-02-01T13:40:20.222Z,2316
2017-02-01T13:41:30.094Z,2324
2017-02-01T13:42:40.476Z,2296
2017-02-01T13:43:50.748Z,2208
2017-02-01T13:45:00.626Z,2288
2017-02-01T13:46:11.247Z,2172
2017-02-01T13:47:21.180Z,2128
2017-02-01T13:48:31.523Z,2224
2017-02-01T13:49:41.835Z,2148
2017-02-01T13:50:52.127Z,2232
2017-02-01T13:52:02.234Z,2188
2017-02-01T13:53:12.551Z,2232
2017-02-01T13:54:22.934Z,2112
2017-02-01T13:55:33.218Z,2224
2017-02-01T13:56:43.162Z,2148
2017-02-01T13:57:53.711Z,2160
2017-02-01T13:59:04.129Z,2184
2017-02-01T14:00:14.435Z,2168
2017-02-01T14:01:24.708Z,2136
2017-02-01T14:02:35.010Z,1944
2017-02-01T14:03:44.759Z,2080
2017-02-01T14:04:54.752Z,2156
2017-02-01T14:06:05.024Z,1960
2017-02-01T14:07:15.325Z,1852
2017-02-01T14:08:25.754Z,1996
2017-02-01T14:09:36.377Z,1880
2017-02-01T14:10:46.725Z,2064
2017-02-01T14:11:57.003Z,2000
2017-02-01T14:13:06.856Z,1944
2017-02-01T14:14:17.097Z,2056
2017-02-01T14:15:27.673Z,2124
2017-02-01T14:16:37.580Z,2140
2017-02-01T14:17:47.443Z,2044
2017-02-01T14:18:57.454Z,2032
2017-02-01T14:20:07.432Z,2092
2017-02-01T14:21:18.024Z,2320
2017-02-01T14:22:28.317Z,2156
2017-02-01T14:23:38.662Z,2056
2017-02-01T14:24:48.927Z,2288
2017-02-01T14:25:59.230Z,2136
2017-02-01T14:27:09.815Z,2412
2017-02-01T14:28:20.092Z,2412
2017-02-01T14:29:29.595Z,1964
2017-02-01T14:30:39.480Z,2172
2017-02-01T14:31:49.787Z,2176
2017-02-01T14:33:00.376Z,2128
2017-02-01T14:34:09.995Z,2112
2017-02-01T14:35:19.931Z,1952
2017-02-01T14:36:30.215Z,2280
2017-02-01T14:37:40.090Z,2364
2017-02-01T14:38:50.731Z,2220
2017-02-01T14:40:00.617Z,2216
2017-02-01T14:41:10.921Z,2172
2017-02-01T14:42:21.214Z,1976
2017-02-01T14:43:31.472Z,1852
2017-02-01T14:44:42.055Z,1584
2017-02-01T14:45:52.357Z,1724
2017-02-01T14:47:02.226Z,1716
2017-02-01T14:48:12.602Z,1588
2017-02-01T14:49:22.084Z,1760
2017-02-01T14:50:32.724Z,1656
2017-02-01T14:51:42.209Z,1780
2017-02-01T14:52:52.056Z,1668
2017-02-01T14:54:34.124Z,1576
2017-02-01T14:55:44.666Z,1588
2017-02-01T14:56:54.954Z,1508
2017-02-01T14:58:05.204Z,1416
2017-02-01T14:59:15.261Z,1368
2017-02-01T15:00:25.114Z,1320
2017-02-01T15:01:35.358Z,1252
2017-02-01T15:02:45.746Z,1288
2017-02-01T15:03:55.222Z,1148
2017-02-01T15:05:05.526Z,1196
2017-02-01T15:06:15.794Z,1216
2017-02-01T15:07:25.926Z,1180
2017-02-01T15:08:36.227Z,1152
2017-02-01T15:09:46.513Z,1132
2017-02-01T15:10:56.405Z,1144
2017-02-01T15:12:06.289Z,1108
2017-02-01T15:13:16.871Z,1108
2017-02-01T15:14:27.217Z,1088
2017-02-01T15:15:37.534Z,1112
2017-02-01T15:16:47.853Z,1080
2017-02-01T15:17:58.151Z,1060
2017-02-01T15:19:08.732Z,1044
2017-02-01T15:20:18.611Z,1024
2017-02-01T15:21:28.578Z,996
2017-02-01T15:22:38.909Z,948
2017-02-01T15:23:48.388Z,944
2017-02-01T15:24:58.520Z,876
2017-02-01T15:26:08.814Z,840
2017-02-01T15:27:19.067Z,804
2017-02-01T15:28:29.350Z,816
2017-02-01T15:29:39.634Z,744
2017-02-01T15:30:49.770Z,668
2017-02-01T15:32:00.068Z,704
2017-02-01T15:33:10.164Z,684
2017-02-01T15:34:20.471Z,652
2017-02-01T15:35:30.732Z,600
2017-02-01T15:36:41.290Z,560
2017-02-01T15:37:51.187Z,544
2017-02-01T15:39:01.032Z,532
2017-02-01T15:40:10.901Z,468
2017-02-01T15:41:20.409Z,472
2017-02-01T15:42:30.546Z,444
2017-02-01T15:43:40.797Z,408
2017-02-01T15:44:50.731Z,388
2017-02-01T15:46:01.089Z,364
2017-02-01T15:47:10.955Z,332
2017-02-01T15:48:21.511Z,292
2017-02-01T15:49:31.399Z,264
2017-02-01T15:50:40.480Z,236
2017-02-01T15:51:50.778Z,224
2017-02-01T15:53:01.223Z,188
2017-02-01T15:54:11.515Z,188
2017-02-01T15:55:21.840Z,176
2017-02-01T15:56:31.702Z,156
2017-02-01T15:57:42.013Z,164
2017-02-01T15:58:51.891Z,156
2017-02-01T16:00:02.056Z,144
2017-02-01T16:01:12.311Z,160
2017-02-01T16:02:22.213Z,176
2017-02-01T16:03:32.489Z,188
2017-02-01T16:04:42.796Z,196
2017-02-01T16:05:52.964Z,176
2017-02-01T16:07:03.349Z,148
2017-02-01T16:08:13.679Z,136
2017-02-01T16:09:23.966Z,120
2017-02-01T16:10:33.553Z,108
2017-02-01T16:11:43.776Z,92
2017-02-01T16:12:54.090Z,84
2017-02-01T16:14:04.125Z,72
2017-02-01T16:15:14.769Z,60
2017-02-01T16:16:24.846Z,52
2017-02-01T16:17:35.458Z,40
2017-02-01T16:20:08.266Z,28
2017-02-01T16:21:18.092Z,24